createdAt,value
2022-09-15T00:00:47.112Z,58440.75
2022-09-15T00:01:50.879Z,58363.49
2022-09-15T00:02:54.492Z,58434.73
2022-09-15T00:03:57.978Z,58404.63
2022-09-15T00:05:01.581Z,58299.28
2022-09-15T00:06:04.542Z,58331.38
2022-09-15T00:07:07.732Z,58341.42
2022-09-15T00:08:11.230Z,58245.09
2022-09-15T00:09:14.312Z,58508.99
2022-09-15T00:10:17.505Z,58583.24
2022-09-15T00:11:20.775Z,58651.48
2022-09-15T00:12:23.850Z,58675.56
2022-09-15T00:13:26.747Z,58692.62
2022-09-15T00:14:30.423Z,58824.08
2022-09-15T00:15:33.604Z,58955.54
2022-09-15T00:16:36.931Z,59037.83
2022-09-15T00:17:40.484Z,59097.04
2022-09-15T00:18:43.251Z,59054.89
2022-09-15T00:19:46.128Z,58922.43
2022-09-15T00:20:49.510Z,58825.08
2022-09-15T00:21:53.212Z,58644.45
2022-09-15T00:22:56.499Z,58148.77
2022-09-15T00:23:59.884Z,57995.27
2022-09-15T00:25:02.661Z,57635.09
2022-09-15T00:26:05.324Z,57600.98
2022-09-15T00:27:08.391Z,57390.32
2022-09-15T00:28:11.271Z,57172.64
2022-09-15T00:29:14.145Z,56883.76
2022-09-15T00:30:17.229Z,56654.07
2022-09-15T00:31:20.063Z,56615.96
2022-09-15T00:32:23.587Z,56671.12
2022-09-15T00:33:26.570Z,56776.44
2022-09-15T00:34:29.649Z,56559.80
2022-09-15T00:35:32.516Z,56513.66
2022-09-15T00:36:36.134Z,56184.71
2022-09-15T00:37:39.409Z,56093.46
2022-09-15T00:38:42.284Z,56077.41
2022-09-15T00:39:45.598Z,55748.50
2022-09-15T00:40:48.945Z,55085.75
2022-09-15T00:41:51.812Z,54755.91
2022-09-15T00:42:55.099Z,54355.95
2022-09-15T00:43:58.183Z,54025.17
2022-09-15T00:45:00.949Z,53935.97
2022-09-15T00:46:04.036Z,53950.00
2022-09-15T00:47:19.193Z,53942.98
2022-09-15T00:48:11.419Z,53906.90
2022-09-15T00:49:14.493Z,54052.23
2022-09-15T00:50:17.580Z,54045.22
2022-09-15T00:51:20.552Z,54028.18
2022-09-15T00:52:23.527Z,54006.13
2022-09-15T00:53:26.922Z,54013.14
2022-09-15T00:54:30.201Z,53969.04
2022-09-15T00:55:33.485Z,53968.04
2022-09-15T00:56:36.769Z,54000.11
2022-09-15T00:57:39.856Z,54015.15
2022-09-15T00:58:43.154Z,54036.20
2022-09-15T00:59:46.326Z,54076.29
2022-09-15T01:00:49.629Z,54077.29
2022-09-15T01:01:52.762Z,54143.45
2022-09-15T01:02:55.661Z,54176.52
2022-09-15T01:03:58.529Z,54223.63
2022-09-15T01:05:01.326Z,54207.59
2022-09-15T01:06:04.276Z,54160.48
2022-09-15T01:07:07.570Z,54092.33
2022-09-15T01:08:10.848Z,54142.44
2022-09-15T01:09:14.143Z,54244.68
2022-09-15T01:10:17.724Z,54216.62
2022-09-15T01:11:20.696Z,54196.57
2022-09-15T01:12:23.888Z,54188.55
2022-09-15T01:13:27.068Z,54171.51
2022-09-15T01:14:30.558Z,54175.52
2022-09-15T01:15:33.852Z,54220.62
2022-09-15T01:16:37.186Z,54266.73
2022-09-15T01:17:40.724Z,54289.79
2022-09-15T01:18:43.906Z,54298.81
2022-09-15T01:19:47.295Z,54291.79
2022-09-15T01:20:50.294Z,54408.07
2022-09-15T01:21:58.148Z,54464.20
2022-09-15T01:22:59.797Z,54577.48
2022-09-15T01:24:02.882Z,54565.45
2022-09-15T01:25:06.172Z,54596.52
2022-09-15T01:26:09.246Z,54742.88
2022-09-15T01:27:37.706Z,54804.04
2022-09-15T01:28:16.929Z,54585.50
2022-09-15T01:29:21.755Z,54463.20
2022-09-15T01:30:24.635Z,54443.15
2022-09-15T01:31:27.709Z,54483.25
2022-09-15T01:32:30.786Z,54488.26
2022-09-15T01:33:34.189Z,54430.12
2022-09-15T01:34:37.483Z,54458.19
2022-09-15T01:35:40.539Z,54544.40
2022-09-15T01:36:43.723Z,54606.55
2022-09-15T01:37:46.807Z,54599.53
2022-09-15T01:38:50.095Z,54618.58
2022-09-15T01:39:53.154Z,54751.91
2022-09-15T01:40:56.043Z,54863.18
2022-09-15T01:41:59.031Z,54938.37
2022-09-15T01:43:01.888Z,54907.29
2022-09-15T01:44:04.760Z,54808.05
2022-09-15T01:45:07.650Z,54753.91
2022-09-15T01:46:10.687Z,54664.69
2022-09-15T01:47:13.704Z,54619.58
2022-09-15T01:48:16.777Z,54551.41
2022-09-15T01:49:19.862Z,54547.40
2022-09-15T01:50:22.830Z,54559.43
2022-09-15T01:51:25.812Z,54620.58
2022-09-15T01:52:28.583Z,54741.88
2022-09-15T01:53:31.471Z,54798.02
2022-09-15T01:54:34.942Z,54786.99
2022-09-15T01:55:38.029Z,54873.21
2022-09-15T01:56:41.524Z,55011.56
2022-09-15T01:57:44.703Z,55082.74
2022-09-15T01:58:48.085Z,55116.83
2022-09-15T01:59:51.269Z,55050.66
2022-09-15T02:00:55.144Z,55054.67
2022-09-15T02:01:58.274Z,55097.78
2022-09-15T02:03:01.553Z,55080.73
2022-09-15T02:04:04.724Z,55146.91
2022-09-15T02:05:07.796Z,55018.57
2022-09-15T02:06:10.870Z,55004.54
2022-09-15T02:07:14.684Z,54876.21
2022-09-15T02:08:17.962Z,54779.98
2022-09-15T02:09:21.031Z,54753.91
2022-09-15T02:10:24.410Z,54822.08
2022-09-15T02:11:27.905Z,54795.01
2022-09-15T02:12:31.189Z,54744.89
2022-09-15T02:13:34.269Z,54611.56
2022-09-15T02:14:37.350Z,54423.11
2022-09-15T02:15:40.729Z,54350.93
2022-09-15T02:16:43.884Z,54314.85
2022-09-15T02:17:46.582Z,54134.43
2022-09-15T02:18:49.580Z,54055.24
2022-09-15T02:19:52.549Z,54012.14
2022-09-15T02:20:55.835Z,53982.07
2022-09-15T02:21:58.927Z,53994.10
2022-09-15T02:23:02.218Z,54090.32
2022-09-15T02:24:05.369Z,54085.31
2022-09-15T02:25:08.342Z,54095.33
2022-09-15T02:26:11.729Z,54264.73
2022-09-15T02:27:14.924Z,54447.16
2022-09-15T02:28:18.096Z,54492.27
2022-09-15T02:29:21.182Z,54515.33
2022-09-15T02:30:24.677Z,54603.54
2022-09-15T02:31:27.941Z,54571.46
2022-09-15T02:32:31.170Z,54665.69
2022-09-15T02:33:34.212Z,54874.21
2022-09-15T02:34:37.490Z,55008.55
2022-09-15T02:35:40.670Z,55167.96
2022-09-15T02:36:43.976Z,55327.38
2022-09-15T02:37:47.648Z,55572.02
2022-09-15T02:38:50.976Z,55744.49
2022-09-15T02:39:55.215Z,56021.25
2022-09-15T02:40:59.970Z,56071.39
2022-09-15T02:42:02.941Z,56051.34
2022-09-15T02:43:06.853Z,56176.69
2022-09-15T02:44:10.027Z,56161.65
2022-09-15T02:45:13.006Z,56160.64
2022-09-15T02:46:16.400Z,56167.66
2022-09-15T02:47:19.988Z,56211.79
2022-09-15T02:48:23.260Z,56264.94
2022-09-15T02:49:26.442Z,56212.79
2022-09-15T02:50:29.837Z,56239.87
2022-09-15T02:51:33.009Z,56277.98
2022-09-15T02:52:35.987Z,56228.84
2022-09-15T02:53:39.069Z,56108.50
2022-09-15T02:54:42.165Z,55969.11
2022-09-15T02:55:45.339Z,55882.87
2022-09-15T02:56:48.714Z,55864.82
2022-09-15T02:57:51.795Z,55967.10
2022-09-15T02:58:54.569Z,55914.96
2022-09-15T02:59:57.646Z,55900.92
2022-09-15T03:01:01.236Z,55884.87
2022-09-15T03:02:04.065Z,55933.01
2022-09-15T03:03:06.986Z,56023.26
2022-09-15T03:04:09.653Z,56061.37
2022-09-15T03:05:12.533Z,56143.60
2022-09-15T03:06:15.818Z,56316.09
2022-09-15T03:07:18.786Z,56406.35
2022-09-15T03:08:21.670Z,56507.64
2022-09-15T03:09:24.865Z,56567.82
2022-09-15T03:10:27.720Z,56711.24
2022-09-15T03:11:30.489Z,56872.73
2022-09-15T03:12:33.674Z,56865.70
2022-09-15T03:13:36.560Z,56807.53
2022-09-15T03:14:39.939Z,56754.37
2022-09-15T03:15:43.024Z,56872.73
2022-09-15T03:16:46.282Z,56887.77
2022-09-15T03:17:49.174Z,56949.96
2022-09-15T03:18:52.049Z,57027.20
2022-09-15T03:19:54.714Z,57091.39
2022-09-15T03:20:57.694Z,57140.54
2022-09-15T03:22:00.571Z,57174.64
2022-09-15T03:23:03.237Z,57322.11
2022-09-15T03:24:06.123Z,57381.29
2022-09-15T03:25:09.304Z,57425.43
2022-09-15T03:26:12.182Z,57481.61
2022-09-15T03:27:15.559Z,57499.66
2022-09-15T03:28:18.224Z,57543.80
2022-09-15T03:29:21.207Z,57486.62
2022-09-15T03:30:23.977Z,57450.51
2022-09-15T03:31:27.140Z,57436.46
2022-09-15T03:32:30.149Z,57580.92
2022-09-15T03:33:33.131Z,57789.59
2022-09-15T03:34:36.098Z,57915.00
2022-09-15T03:35:39.483Z,58009.31
2022-09-15T03:36:42.653Z,58079.54
2022-09-15T03:37:45.941Z,58219.01
2022-09-15T03:38:49.637Z,58356.47
2022-09-15T03:39:53.075Z,58296.27
2022-09-15T03:40:56.420Z,58327.37
2022-09-15T03:41:59.486Z,58397.61
2022-09-15T03:43:02.368Z,58520.03
2022-09-15T03:44:05.344Z,58671.55
2022-09-15T03:45:08.326Z,58854.18
2022-09-15T03:46:11.679Z,58873.25
2022-09-15T03:47:14.794Z,59026.79
2022-09-15T03:48:17.658Z,59098.05
2022-09-15T03:49:21.050Z,59201.42
2022-09-15T03:50:24.225Z,59290.74
2022-09-15T03:51:27.827Z,59421.21
2022-09-15T03:52:31.212Z,59577.79
2022-09-15T03:53:34.087Z,59674.14
2022-09-15T03:54:36.870Z,59833.74
2022-09-15T03:55:39.944Z,59938.13
2022-09-15T03:56:43.125Z,60078.67
2022-09-15T03:57:46.195Z,60217.20
2022-09-15T03:58:49.385Z,60389.87
2022-09-15T03:59:54.933Z,60498.29
2022-09-15T04:00:57.875Z,60643.86
2022-09-15T04:02:00.742Z,60854.70
2022-09-15T04:03:03.840Z,60958.12
2022-09-15T04:04:07.227Z,61038.45
2022-09-15T04:05:09.999Z,61135.84
2022-09-15T04:06:13.289Z,61224.20
2022-09-15T04:07:16.607Z,61353.74
2022-09-15T04:08:19.868Z,61405.95
2022-09-15T04:09:22.947Z,61460.18
2022-09-15T04:10:25.810Z,61501.35
2022-09-15T04:11:28.790Z,61656.00
2022-09-15T04:12:31.665Z,61703.20
2022-09-15T04:13:34.842Z,61783.54
2022-09-15T04:14:37.922Z,61864.88
2022-09-15T04:15:40.615Z,61934.18
2022-09-15T04:16:43.975Z,62003.48
2022-09-15T04:17:47.064Z,62075.79
2022-09-15T04:18:51.567Z,62177.23
2022-09-15T04:19:54.660Z,62259.59
2022-09-15T04:20:57.944Z,62341.95
2022-09-15T04:22:03.166Z,62424.31
2022-09-15T04:23:09.740Z,62460.46
2022-09-15T04:24:13.323Z,62531.78
2022-09-15T04:25:16.604Z,62606.11
2022-09-15T04:26:19.794Z,62623.19
2022-09-15T04:27:22.867Z,62715.60
2022-09-15T04:28:25.957Z,62795.96
2022-09-15T04:29:29.745Z,62828.11
2022-09-15T04:30:33.332Z,62860.25
2022-09-15T04:31:37.088Z,62957.69
2022-09-15T04:32:40.609Z,62934.59
2022-09-15T04:33:44.320Z,62930.57
2022-09-15T04:34:48.935Z,62932.58
2022-09-15T04:35:52.927Z,62946.64
2022-09-15T04:36:56.311Z,62984.81
2022-09-15T04:37:59.389Z,62983.81
2022-09-15T04:39:02.566Z,62976.78
2022-09-15T04:40:05.604Z,62970.75
2022-09-15T04:41:11.376Z,62908.47
2022-09-15T04:42:14.267Z,62915.50
2022-09-15T04:43:17.975Z,62881.35
2022-09-15T04:44:20.943Z,62886.37
2022-09-15T04:45:24.423Z,62820.07
2022-09-15T04:46:28.064Z,62816.05
2022-09-15T04:47:30.791Z,62629.21
2022-09-15T04:48:33.786Z,62560.91
2022-09-15T04:49:36.968Z,62484.57
2022-09-15T04:50:40.338Z,62467.50
2022-09-15T04:51:43.619Z,62393.17
2022-09-15T04:52:47.007Z,62309.80
2022-09-15T04:53:49.889Z,62185.26
2022-09-15T04:54:53.493Z,62064.74
2022-09-15T04:55:56.758Z,61990.42
2022-09-15T04:56:59.647Z,61867.89
2022-09-15T04:58:02.509Z,61794.58
2022-09-15T04:59:05.273Z,61749.39
2022-09-15T05:00:08.375Z,61642.94
2022-09-15T05:01:11.512Z,61578.67
2022-09-15T05:02:14.802Z,61548.55
2022-09-15T05:03:17.704Z,61450.14
2022-09-15T05:04:20.475Z,61363.78
2022-09-15T05:05:23.448Z,61302.52
2022-09-15T05:06:26.427Z,61253.32
2022-09-15T05:07:29.712Z,61189.06
2022-09-15T05:08:32.790Z,61108.73
2022-09-15T05:09:35.869Z,61078.61
2022-09-15T05:10:38.841Z,61035.43
2022-09-15T05:11:42.027Z,61016.36
2022-09-15T05:12:45.112Z,61012.34
2022-09-15T05:13:52.442Z,60960.13
2022-09-15T05:15:00.167Z,60938.04
2022-09-15T05:16:03.020Z,60919.97
2022-09-15T05:17:05.723Z,60867.76
2022-09-15T05:18:11.772Z,60836.63
2022-09-15T05:19:14.748Z,60794.46
2022-09-15T05:20:17.928Z,60715.15
2022-09-15T05:21:21.739Z,60684.02
2022-09-15T05:22:25.110Z,60682.02
2022-09-15T05:23:28.192Z,60601.70
2022-09-15T05:24:31.381Z,60552.50
2022-09-15T05:25:35.199Z,60438.05
2022-09-15T05:26:38.771Z,60369.79
2022-09-15T05:27:41.839Z,60283.45
2022-09-15T05:28:46.504Z,60165.00
2022-09-15T05:29:49.228Z,60016.43
2022-09-15T05:30:52.029Z,59916.05
2022-09-15T05:31:55.431Z,59758.46
2022-09-15T05:33:07.650Z,59141.20
2022-09-15T05:34:11.068Z,58803.00
2022-09-15T05:35:14.140Z,58469.86
2022-09-15T05:36:17.648Z,58172.85
2022-09-15T05:37:20.930Z,57848.79
2022-09-15T05:38:30.964Z,57716.36
2022-09-15T05:39:34.357Z,57569.89
2022-09-15T05:40:37.423Z,57433.45
2022-09-15T05:41:41.650Z,57295.02
2022-09-15T05:42:44.911Z,57120.48
2022-09-15T05:43:49.039Z,57022.18
2022-09-15T05:44:54.487Z,56854.67
2022-09-15T05:45:57.653Z,56726.29
2022-09-15T05:47:00.899Z,56639.03
2022-09-15T05:48:03.926Z,56448.47
2022-09-15T05:49:06.994Z,56370.24
2022-09-15T05:50:11.382Z,56187.72
2022-09-15T05:51:14.600Z,55761.54
2022-09-15T05:52:18.271Z,55246.16
2022-09-15T05:53:21.753Z,55172.97
2022-09-15T05:54:29.452Z,55154.93
2022-09-15T05:55:33.284Z,55121.84
2022-09-15T05:56:43.615Z,55178.99
2022-09-15T05:57:47.303Z,55167.96
2022-09-15T05:58:50.565Z,55178.99
2022-09-15T05:59:53.753Z,55114.82
2022-09-15T06:00:56.827Z,55110.81
2022-09-15T06:01:59.942Z,55105.80
2022-09-15T06:03:03.131Z,55123.84
2022-09-15T06:04:06.274Z,55138.88
2022-09-15T06:05:09.456Z,55143.89
2022-09-15T06:06:13.580Z,55191.02
2022-09-15T06:07:20.312Z,55158.93
2022-09-15T06:08:23.614Z,55207.06
2022-09-15T06:09:34.734Z,55168.96
2022-09-15T06:10:38.236Z,55171.97
2022-09-15T06:11:47.405Z,55164.95
2022-09-15T06:12:56.524Z,55123.84
2022-09-15T06:13:59.487Z,55157.93
2022-09-15T06:15:02.872Z,55155.93
2022-09-15T06:16:06.564Z,55153.92
2022-09-15T06:17:09.300Z,55130.86
2022-09-15T06:18:13.841Z,55156.93
2022-09-15T06:19:16.674Z,55142.89
2022-09-15T06:20:19.703Z,55146.91
2022-09-15T06:21:23.721Z,55125.85
2022-09-15T06:22:27.603Z,55091.76
2022-09-15T06:23:50.635Z,55118.83
2022-09-15T06:24:58.020Z,55142.89
2022-09-15T06:26:01.261Z,55146.91
2022-09-15T06:27:03.938Z,55141.89
2022-09-15T06:28:23.039Z,55106.80
2022-09-15T06:29:27.651Z,55112.82
2022-09-15T06:30:31.466Z,55126.85
2022-09-15T06:31:36.180Z,55166.96
2022-09-15T06:32:39.566Z,55151.92
2022-09-15T06:33:43.155Z,55104.80
2022-09-15T06:34:46.361Z,55151.92
2022-09-15T06:35:49.525Z,55129.86
2022-09-15T06:36:57.809Z,55114.82
2022-09-15T06:38:01.515Z,55107.80
2022-09-15T06:39:04.818Z,55133.87
2022-09-15T06:40:07.595Z,55105.80
2022-09-15T06:41:11.455Z,55124.85
2022-09-15T06:42:17.830Z,55124.85
2022-09-15T06:43:20.880Z,55132.87
2022-09-15T06:44:24.502Z,55143.89
2022-09-15T06:45:29.503Z,55146.91
2022-09-15T06:46:33.179Z,55167.96
2022-09-15T06:47:35.987Z,55160.94
2022-09-15T06:48:39.259Z,55124.85
2022-09-15T06:49:42.631Z,55121.84
2022-09-15T06:50:45.868Z,55143.89
2022-09-15T06:51:49.521Z,55114.82
2022-09-15T06:52:52.712Z,55113.82
2022-09-15T06:53:56.185Z,55134.87
2022-09-15T06:55:00.207Z,55118.83
2022-09-15T06:56:05.541Z,55147.91
2022-09-15T06:57:10.242Z,55157.93
2022-09-15T06:58:13.531Z,55147.91
2022-09-15T06:59:16.823Z,55124.85
2022-09-15T07:00:20.110Z,55125.85
2022-09-15T07:01:22.868Z,55163.95
2022-09-15T07:02:28.333Z,55160.94
2022-09-15T07:03:34.331Z,55144.90
2022-09-15T07:04:38.153Z,55150.91
2022-09-15T07:07:01.695Z,55137.88
2022-09-15T07:08:04.691Z,55189.01
2022-09-15T07:09:08.010Z,55178.99
2022-09-15T07:10:17.855Z,55168.96
2022-09-15T07:11:21.516Z,55113.82
2022-09-15T07:12:24.690Z,55165.95
2022-09-15T07:13:27.764Z,55167.96
2022-09-15T07:14:30.762Z,55143.89
2022-09-15T07:15:35.069Z,55174.98
2022-09-15T07:16:45.950Z,55128.86
2022-09-15T07:17:49.615Z,55155.93
2022-09-15T07:18:52.527Z,55145.90
2022-09-15T07:20:00.794Z,55210.07
2022-09-15T07:21:04.380Z,55183.00
2022-09-15T07:22:07.271Z,55143.89
2022-09-15T07:23:11.486Z,55156.93
2022-09-15T07:24:17.431Z,55142.89
2022-09-15T07:25:20.804Z,55176.98
2022-09-15T07:26:26.073Z,55170.96
2022-09-15T07:27:29.735Z,55132.87
2022-09-15T07:28:32.730Z,55189.01
2022-09-15T07:29:37.938Z,55136.88
2022-09-15T07:30:41.633Z,55162.95
2022-09-15T07:31:48.490Z,55149.91
2022-09-15T07:32:53.128Z,55169.96
2022-09-15T07:33:56.799Z,55159.94
2022-09-15T07:35:01.017Z,55137.88
2022-09-15T07:36:03.994Z,55148.91
2022-09-15T07:37:07.373Z,55117.83
2022-09-15T07:38:14.550Z,55137.88
2022-09-15T07:39:18.133Z,55127.86
2022-09-15T07:41:41.400Z,55127.86
2022-09-15T07:44:05.187Z,55113.82
2022-09-15T07:45:12.851Z,55129.86
2022-09-15T07:46:16.149Z,55128.86
2022-09-15T07:47:27.857Z,55136.88
2022-09-15T07:48:31.719Z,55120.84
2022-09-15T07:49:41.966Z,55136.88
2022-09-15T07:50:48.013Z,55126.85
2022-09-15T07:51:51.285Z,55094.77
2022-09-15T07:52:54.205Z,55093.77
2022-09-15T07:53:57.666Z,55089.76
2022-09-15T07:55:00.844Z,55061.69
2022-09-15T07:56:03.718Z,55078.73
2022-09-15T07:57:07.400Z,55066.70
2022-09-15T07:58:10.376Z,55054.67
2022-09-15T07:59:13.647Z,55064.69
2022-09-15T08:00:16.461Z,55070.71
2022-09-15T08:01:19.455Z,55042.64
2022-09-15T08:02:22.483Z,55038.62
2022-09-15T08:03:26.011Z,55033.61
2022-09-15T08:04:30.299Z,55041.63
2022-09-15T08:05:38.142Z,55046.65
2022-09-15T08:06:38.505Z,54984.49
2022-09-15T08:07:41.589Z,55019.58
2022-09-15T08:08:44.658Z,54994.52
2022-09-15T08:09:48.461Z,54994.52
2022-09-15T08:10:51.945Z,54991.51
2022-09-15T08:11:55.024Z,54950.40
2022-09-15T08:12:57.912Z,54945.39
2022-09-15T08:14:00.778Z,54945.39
2022-09-15T08:15:03.657Z,54925.34
2022-09-15T08:16:06.531Z,54921.33
2022-09-15T08:17:11.514Z,54878.22
2022-09-15T08:18:13.706Z,54869.20
2022-09-15T08:19:16.588Z,54874.21
2022-09-15T08:20:19.552Z,54812.05
2022-09-15T08:21:22.656Z,54830.10
2022-09-15T08:22:25.722Z,54814.06
2022-09-15T08:23:28.800Z,54807.04
2022-09-15T08:24:32.289Z,54788.00
2022-09-15T08:25:35.566Z,54803.04
2022-09-15T08:26:38.334Z,54775.96
2022-09-15T08:27:41.215Z,54792.01
2022-09-15T08:28:44.105Z,54720.83
2022-09-15T08:29:46.758Z,54747.89
2022-09-15T08:30:49.659Z,54725.84
2022-09-15T08:31:52.411Z,54723.84
2022-09-15T08:32:55.105Z,54740.88
2022-09-15T08:33:58.259Z,54715.82
2022-09-15T08:35:01.432Z,54713.81
2022-09-15T08:36:04.211Z,54729.85
2022-09-15T08:37:07.203Z,54704.79
2022-09-15T08:38:12.008Z,54664.69
2022-09-15T08:39:15.199Z,54663.69
2022-09-15T08:40:18.976Z,54650.66
2022-09-15T08:41:22.514Z,54678.73
2022-09-15T08:42:25.661Z,54648.65
2022-09-15T08:43:29.257Z,54634.62
2022-09-15T08:44:32.772Z,54567.45
2022-09-15T08:45:35.828Z,54591.51
2022-09-15T08:46:39.391Z,54590.51
2022-09-15T08:47:42.186Z,54536.38
2022-09-15T08:48:45.366Z,54549.41
2022-09-15T08:49:54.858Z,54537.38
2022-09-15T08:50:57.771Z,54496.28
2022-09-15T08:52:00.749Z,54437.14
2022-09-15T08:53:03.728Z,54509.31
2022-09-15T08:54:06.386Z,54503.30
2022-09-15T08:55:09.271Z,54461.20
2022-09-15T08:56:12.248Z,54433.13
2022-09-15T08:57:15.322Z,54400.05
2022-09-15T08:58:18.607Z,54431.12
2022-09-15T08:59:21.583Z,54355.95
2022-09-15T09:00:24.657Z,54373.99
2022-09-15T09:01:27.707Z,54360.96
2022-09-15T09:02:30.741Z,54324.87
2022-09-15T09:03:33.591Z,54357.95
2022-09-15T09:04:36.588Z,54317.86
2022-09-15T09:05:39.546Z,54329.88
2022-09-15T09:06:42.524Z,54318.86
2022-09-15T09:07:45.603Z,54293.80
2022-09-15T09:08:48.373Z,54300.81
2022-09-15T09:09:51.452Z,54260.72
2022-09-15T09:10:54.445Z,54244.68
2022-09-15T09:11:57.204Z,54240.67
2022-09-15T09:13:00.496Z,54219.62
2022-09-15T09:14:03.469Z,54204.59
2022-09-15T09:15:06.337Z,54213.61
2022-09-15T09:16:09.414Z,54199.57
2022-09-15T09:17:12.193Z,54193.56
2022-09-15T09:18:16.397Z,54204.59
2022-09-15T09:19:20.422Z,54184.54
2022-09-15T09:20:23.287Z,54178.53
2022-09-15T09:21:26.154Z,54200.58
2022-09-15T09:22:29.330Z,54132.42
2022-09-15T09:23:31.999Z,54115.38
2022-09-15T09:24:34.992Z,54105.36
2022-09-15T09:25:38.059Z,54083.30
2022-09-15T09:26:41.238Z,54068.27
2022-09-15T09:27:44.218Z,54049.23
2022-09-15T09:28:47.500Z,54025.17
2022-09-15T09:29:50.581Z,54032.19
2022-09-15T09:30:53.802Z,54016.15
2022-09-15T09:31:56.743Z,54009.14
2022-09-15T09:33:00.021Z,53998.11
2022-09-15T09:34:03.096Z,53972.05
2022-09-15T09:35:06.078Z,53965.04
2022-09-15T09:36:09.277Z,53985.08
2022-09-15T09:37:12.340Z,53980.07
2022-09-15T09:38:15.720Z,53963.03
2022-09-15T09:39:19.016Z,53945.99
2022-09-15T09:40:22.791Z,53918.93
2022-09-15T09:41:26.091Z,53956.02
2022-09-15T09:42:29.270Z,53909.91
2022-09-15T09:43:32.766Z,53893.87
2022-09-15T09:44:35.637Z,53887.86
2022-09-15T09:45:38.714Z,53904.90
2022-09-15T09:46:41.589Z,53856.79
2022-09-15T09:47:44.262Z,53889.86
2022-09-15T09:48:47.029Z,53855.79
2022-09-15T09:49:49.808Z,53871.82
2022-09-15T09:50:52.574Z,53870.82
2022-09-15T09:51:55.965Z,53868.82
2022-09-15T09:52:58.836Z,53845.77
2022-09-15T09:54:02.128Z,53852.78
2022-09-15T09:55:04.904Z,53795.65
2022-09-15T09:56:07.664Z,53802.67
2022-09-15T09:57:10.854Z,53758.57
2022-09-15T09:58:13.825Z,53664.36
2022-09-15T09:59:19.839Z,53595.21
2022-09-15T10:00:23.261Z,53612.25
2022-09-15T10:01:26.679Z,53689.41
2022-09-15T10:02:29.524Z,53675.39
2022-09-15T10:03:33.122Z,53700.44
2022-09-15T10:04:35.816Z,53689.41
2022-09-15T10:05:38.668Z,53688.41
2022-09-15T10:06:41.323Z,53705.45
2022-09-15T10:07:45.825Z,53674.38
2022-09-15T10:08:48.611Z,53656.34
2022-09-15T10:09:51.801Z,53657.34
2022-09-15T10:10:54.879Z,53674.38
2022-09-15T10:11:57.747Z,53575.17
2022-09-15T10:13:00.517Z,53644.32
2022-09-15T10:14:03.185Z,53711.46
2022-09-15T10:15:05.960Z,53743.54
2022-09-15T10:16:09.047Z,53764.58
2022-09-15T10:17:12.017Z,53767.59
2022-09-15T10:18:15.106Z,53799.66
2022-09-15T10:19:17.985Z,53796.65
2022-09-15T10:20:21.270Z,53801.67
2022-09-15T10:21:24.654Z,53830.73
2022-09-15T10:22:27.821Z,53661.36
2022-09-15T10:23:30.812Z,53727.50
2022-09-15T10:24:33.473Z,53776.61
2022-09-15T10:25:55.492Z,53822.71
2022-09-15T10:26:40.753Z,53825.72
2022-09-15T10:27:49.115Z,53834.74
2022-09-15T10:28:51.830Z,53859.80
2022-09-15T10:29:54.714Z,53815.70
2022-09-15T10:30:57.593Z,53856.79
2022-09-15T10:32:00.425Z,53849.77
2022-09-15T10:33:03.531Z,53845.77
2022-09-15T10:34:06.335Z,53875.83
2022-09-15T10:35:10.807Z,53866.81
2022-09-15T10:36:13.487Z,53833.74
2022-09-15T10:37:16.464Z,53836.75
2022-09-15T10:38:19.543Z,53813.69
2022-09-15T10:39:22.734Z,53753.56
2022-09-15T10:40:25.570Z,53642.31
2022-09-15T10:41:28.472Z,53703.45
2022-09-15T10:42:31.558Z,53740.53
2022-09-15T10:43:34.429Z,53812.69
2022-09-15T10:44:37.304Z,53849.77
2022-09-15T10:45:40.976Z,53825.72
2022-09-15T10:46:44.080Z,53869.82
2022-09-15T10:47:46.966Z,53877.84
2022-09-15T10:48:49.935Z,53877.84
2022-09-15T10:49:52.915Z,53919.93
2022-09-15T10:50:55.673Z,53890.87
2022-09-15T10:51:58.663Z,53865.81
2022-09-15T10:53:01.324Z,53843.76
2022-09-15T10:54:04.211Z,53870.82
2022-09-15T10:55:07.292Z,53840.75
2022-09-15T10:56:09.843Z,53878.84
2022-09-15T10:57:12.733Z,53821.71
2022-09-15T10:58:15.721Z,53860.80
2022-09-15T10:59:19.198Z,53873.83
2022-09-15T11:00:22.487Z,53854.79
2022-09-15T11:01:25.526Z,53819.71
2022-09-15T11:02:29.007Z,53814.70
2022-09-15T11:03:32.116Z,53842.76
2022-09-15T11:04:35.211Z,53814.70
2022-09-15T11:05:38.072Z,53665.36
2022-09-15T11:06:41.146Z,53733.51
2022-09-15T11:07:44.442Z,53711.46
2022-09-15T11:08:47.214Z,53734.52
2022-09-15T11:09:50.392Z,53765.59
2022-09-15T11:10:53.570Z,53724.50
2022-09-15T11:11:56.549Z,53777.61
2022-09-15T11:12:59.735Z,53776.61
2022-09-15T11:14:02.710Z,53797.66
2022-09-15T11:15:05.483Z,53829.73
2022-09-15T11:16:08.367Z,53852.78
2022-09-15T11:17:11.228Z,53816.70
2022-09-15T11:18:15.556Z,53805.68
2022-09-15T11:19:18.307Z,53840.75
2022-09-15T11:20:21.485Z,53701.44
2022-09-15T11:21:33.072Z,53952.00
2022-09-15T11:22:36.150Z,53957.02
2022-09-15T11:23:39.251Z,53861.80
2022-09-15T11:24:42.617Z,53833.74
2022-09-15T11:25:46.562Z,53836.75
2022-09-15T11:26:49.827Z,53839.75
2022-09-15T11:27:53.698Z,53832.73
2022-09-15T11:28:56.883Z,53633.29
2022-09-15T11:29:59.755Z,53643.31
2022-09-15T11:31:02.711Z,53668.37
2022-09-15T11:32:05.708Z,53715.47
2022-09-15T11:33:09.008Z,53789.64
2022-09-15T11:34:12.583Z,53761.58
2022-09-15T11:35:15.766Z,53801.67
2022-09-15T11:36:18.851Z,53796.65
2022-09-15T11:37:22.639Z,53849.77
2022-09-15T11:38:26.536Z,53836.75
2022-09-15T11:39:30.246Z,53818.70
2022-09-15T11:40:33.810Z,53807.68
2022-09-15T11:41:39.170Z,53824.72
2022-09-15T11:42:42.238Z,53793.65
2022-09-15T11:43:45.433Z,53795.65
2022-09-15T11:44:48.499Z,53857.79
2022-09-15T11:45:52.399Z,53813.69
2022-09-15T11:46:55.978Z,53827.72
2022-09-15T11:47:58.965Z,53787.64
2022-09-15T11:49:02.062Z,53802.67
2022-09-15T11:50:04.922Z,53791.64
2022-09-15T11:51:09.767Z,53790.64
2022-09-15T11:52:12.418Z,53760.57
2022-09-15T11:53:15.599Z,53775.61
2022-09-15T11:54:19.186Z,53760.57
2022-09-15T11:55:21.958Z,53741.53
2022-09-15T11:56:24.676Z,53764.58
2022-09-15T11:57:27.714Z,53747.55
2022-09-15T11:58:31.517Z,53722.49
2022-09-15T11:59:34.376Z,53720.48
2022-09-15T12:00:37.266Z,53739.53
2022-09-15T12:01:39.959Z,53682.40
2022-09-15T12:02:42.868Z,53706.45
2022-09-15T12:03:45.468Z,53678.39
2022-09-15T12:04:48.441Z,53661.36
2022-09-15T12:05:51.525Z,53657.34
2022-09-15T12:06:54.679Z,53625.27
2022-09-15T12:07:57.474Z,53486.97
2022-09-15T12:09:00.561Z,53509.02
2022-09-15T12:10:03.325Z,53569.15
2022-09-15T12:11:06.101Z,53146.25
2022-09-15T12:12:08.764Z,53212.39
2022-09-15T12:13:11.565Z,53353.69
2022-09-15T12:14:14.715Z,53509.02
2022-09-15T12:15:17.698Z,53607.23
2022-09-15T12:16:20.645Z,53628.28
2022-09-15T12:17:23.860Z,52801.55
2022-09-15T12:18:38.513Z,52546.05
2022-09-15T12:19:31.345Z,52579.12
2022-09-15T12:20:34.424Z,52651.26
2022-09-15T12:21:37.611Z,52731.41
2022-09-15T12:22:40.586Z,52969.89
2022-09-15T12:23:43.560Z,53065.09
2022-09-15T12:24:46.652Z,53085.13
2022-09-15T12:25:49.716Z,53276.53
2022-09-15T12:26:52.698Z,53465.93
2022-09-15T12:27:55.675Z,53574.16
2022-09-15T12:28:58.660Z,53657.34
2022-09-15T12:30:02.152Z,53757.57